Time;durP1;ratioP1;P1;durP2;ratioP2;P2;SDS_P1;SDS_P2;PMS_P1;PMS_P2;Temp;Humidity;BMP_temperature;BMP_pressure;BME280_temperature;BME280_humidity;BME280_pressure;Samples;Min_cycle;Max_cycle;Signal;HPM_P1;HPM_P2
2021/12/22 00:01:56;;;;;;;70.07;32.72;;;;;;;-4.38;80.40;101476.56;5088713;28;20471;-67
2021/12/22 00:04:24;;;;;;;73.50;33.00;;;;;;;-4.41;80.46;101476.59;5107641;28;20036;-67
2021/12/22 00:06:49;;;;;;;69.30;32.30;;;;;;;-4.43;80.13;101476.59;5097893;28;20028;-67
2021/12/22 00:09:15;;;;;;;69.85;32.28;;;;;;;-4.49;79.86;101468.78;5092990;28;20050;-67
2021/12/22 00:11:41;;;;;;;71.50;32.72;;;;;;;-4.49;79.67;101474.03;5102520;28;20035;-68
2021/12/22 00:14:06;;;;;;;70.50;31.75;;;;;;;-4.49;79.66;101473.19;5107236;28;20056;-68
2021/12/22 00:16:32;;;;;;;69.70;33.25;;;;;;;-4.49;79.79;101475.78;5098699;28;20074;-68
2021/12/22 00:18:57;;;;;;;74.65;34.35;;;;;;;-4.50;80.03;101477.53;5100022;28;20031;-67
2021/12/22 00:21:23;;;;;;;70.63;33.22;;;;;;;-4.46;80.20;101481.00;5099314;28;20048;-67
2021/12/22 00:23:48;;;;;;;83.93;33.85;;;;;;;-4.52;80.54;101479.28;5102032;28;20065;-67
2021/12/22 00:26:15;;;;;;;76.18;34.30;;;;;;;-4.49;80.64;101483.66;5091932;28;20110;-67
2021/12/22 00:28:41;;;;;;;70.25;33.05;;;;;;;-4.63;81.33;101459.31;5105195;28;20027;-67
2021/12/22 00:31:12;;;;;;;72.35;33.15;;;;;;;-4.58;82.01;101474.09;5101447;28;20092;-68
2021/12/22 00:33:46;;;;;;;78.05;34.33;;;;;;;-4.52;82.77;101475.81;5094909;28;20479;-68
2021/12/22 00:36:11;;;;;;;;;;;;;;;-4.38;83.47;101502.75;5092366;28;20024;-68
2021/12/22 00:38:37;;;;;;;68.00;31.38;;;;;;;-4.37;84.17;101487.00;5102447;28;20370;-68
2021/12/22 00:41:02;;;;;;;67.20;31.33;;;;;;;-4.45;84.50;101469.66;5092284;28;20032;-67
2021/12/22 00:43:28;;;;;;;72.85;32.20;;;;;;;-4.31;84.04;101496.56;5090991;28;20032;-68
2021/12/22 00:45:56;;;;;;;70.80;31.63;;;;;;;-4.29;84.47;101484.34;5104282;28;20042;-68
2021/12/22 00:48:22;;;;;;;62.05;27.23;;;;;;;-4.23;84.42;101503.47;5095563;28;20036;-68
2021/12/22 00:50:47;;;;;;;55.90;27.38;;;;;;;-4.16;85.02;101510.38;5098214;28;20083;-68
2021/12/22 00:53:13;;;;;;;60.50;25.67;;;;;;;-4.19;85.57;101484.25;5106351;28;20062;-67
2021/12/22 00:55:38;;;;;;;53.65;25.33;;;;;;;-4.06;86.21;101501.56;5093620;28;20030;-68
2021/12/22 00:58:04;;;;;;;54.97;24.13;;;;;;;-4.01;86.23;101494.53;5106955;28;20701;-69
2021/12/22 01:00:30;;;;;;;53.13;24.00;;;;;;;-3.94;86.45;101490.94;5099697;28;20024;-68
2021/12/22 01:02:56;;;;;;;47.83;24.48;;;;;;;-3.91;86.31;101493.53;5100217;28;20035;-67
2021/12/22 01:05:22;;;;;;;53.75;24.02;;;;;;;-3.87;86.10;101494.38;5090421;28;20023;-67
2021/12/22 01:07:50;;;;;;;49.40;23.45;;;;;;;-3.83;86.13;101499.59;5099427;28;20028;-68
2021/12/22 01:10:23;;;;;;;47.58;21.88;;;;;;;-3.77;85.99;101503.88;5096603;28;20698;-67
2021/12/22 01:12:51;;;;;;;49.17;21.63;;;;;;;-3.74;85.77;101504.69;5096071;28;20031;-70
2021/12/22 01:15:17;;;;;;;43.83;22.02;;;;;;;-3.71;86.21;101504.66;5097941;28;20479;-69
2021/12/22 01:17:46;;;;;;;46.22;22.25;;;;;;;-3.69;85.78;101508.16;5108296;28;20035;-70
2021/12/22 01:20:21;;;;;;;48.30;22.63;;;;;;;-3.69;85.25;101516.00;5097364;28;20530;-69
2021/12/22 01:22:48;;;;;;;44.90;21.63;;;;;;;-3.71;84.74;101509.91;5098867;28;20433;-69
2021/12/22 01:25:18;;;;;;;50.97;23.52;;;;;;;-3.63;83.94;101520.31;5095796;28;20068;-67
2021/12/22 01:27:44;;;;;;;50.67;23.90;;;;;;;-3.69;83.69;101507.28;5096350;28;20494;-68
2021/12/22 01:30:20;;;;;;;48.28;22.70;;;;;;;-3.65;83.97;101515.09;5086664;28;20106;-68
2021/12/22 01:32:46;;;;;;;46.78;22.80;;;;;;;-3.62;83.52;101520.28;5104238;28;20360;-68
2021/12/22 01:35:17;;;;;;;47.67;22.52;;;;;;;-3.73;83.01;101502.97;5093502;28;20463;-68
2021/12/22 01:37:42;;;;;;;48.13;21.33;;;;;;;-3.71;82.98;101511.69;5088464;28;20573;-69
2021/12/22 01:40:10;;;;;;;53.50;23.20;;;;;;;-3.71;81.93;101514.31;5091346;28;20028;-66
2021/12/22 01:42:36;;;;;;;44.20;23.25;;;;;;;-3.71;81.32;101520.41;5103455;28;20039;-67
2021/12/22 01:50:41;;;;;;;49.10;23.35;;;;;;;-3.87;82.05;101499.63;5101402;28;20051;-66
2021/12/22 01:53:55;;;;;;;46.20;21.80;;;;;;;-3.80;81.38;101520.53;5094032;28;20035;-68
2021/12/22 01:56:24;;;;;;;44.70;22.85;;;;;;;-3.90;81.25;101513.59;5087708;28;20475;-67
2021/12/22 01:58:53;;;;;;;47.17;22.40;;;;;;;-3.88;81.08;101522.34;5094472;28;20030;-67
2021/12/22 02:01:19;;;;;;;49.60;22.30;;;;;;;-3.87;81.44;101525.84;5087867;28;20027;-68
2021/12/22 02:03:48;;;;;;;44.65;22.42;;;;;;;-3.95;81.73;101525.03;5098598;28;20032;-68
2021/12/22 02:06:14;;;;;;;47.00;22.65;;;;;;;-4.08;81.32;101513.81;5096143;28;20028;-68
2021/12/22 02:08:41;;;;;;;47.90;23.55;;;;;;;-3.99;81.40;101525.94;5091729;28;20024;-67
2021/12/22 02:11:08;;;;;;;45.05;21.75;;;;;;;-3.99;81.21;101525.94;5092219;28;20039;-69
2021/12/22 02:13:38;;;;;;;45.42;22.33;;;;;;;-4.07;80.91;101519.94;5100929;28;20039;-68
2021/12/22 02:16:07;;;;;;;50.65;22.60;;;;;;;-4.01;80.83;101532.94;5095381;28;20394;-67
2021/12/22 02:18:35;;;;;;;49.42;21.02;;;;;;;-4.05;80.84;101531.22;5101580;28;20061;-67
2021/12/22 02:21:01;;;;;;;49.47;21.92;;;;;;;-4.13;80.42;101526.06;5103997;28;20055;-69
2021/12/22 02:23:26;;;;;;;55.00;24.25;;;;;;;-4.12;81.22;101522.59;5103632;28;20510;-68
2021/12/22 02:25:57;;;;;;;50.25;24.00;;;;;;;-4.03;82.10;101534.72;5093295;28;20024;-68
2021/12/22 02:28:27;;;;;;;49.10;24.27;;;;;;;-4.09;81.08;101516.44;5098322;28;20024;-68
2021/12/22 02:30:53;;;;;;;57.70;25.50;;;;;;;-4.26;80.95;101503.47;5092864;28;20494;-68
2021/12/22 02:33:22;;;;;;;52.92;24.55;;;;;;;-4.15;80.31;101529.59;5094043;28;20463;-69
2021/12/22 02:38:28;;;;;;;61.72;25.85;;;;;;;-4.27;80.07;101503.50;5101795;28;20142;-68
2021/12/22 02:40:54;;;;;;;52.03;24.42;;;;;;;-4.34;80.19;101500.09;5102570;28;20753;-68
2021/12/22 02:43:24;;;;;;;61.85;25.13;;;;;;;-4.26;80.60;101519.19;5095125;28;20028;-69
2021/12/22 02:45:51;;;;;;;49.15;21.92;;;;;;;-4.26;80.47;101520.97;5101422;28;20035;-69
2021/12/22 02:48:18;;;;;;;48.38;23.25;;;;;;;-4.31;80.14;101518.38;5098240;28;20059;-68
2021/12/22 02:50:44;;;;;;;51.25;23.80;;;;;;;-4.41;80.80;101510.63;5103130;28;20062;-69
2021/12/22 02:53:11;;;;;;;52.22;22.17;;;;;;;-4.36;81.41;101527.16;5105922;28;20028;-69
2021/12/22 02:58:20;;;;;;;49.67;23.58;;;;;;;-4.42;81.11;101527.22;5099534;28;20030;-69
2021/12/22 03:01:02;;;;;;;56.97;24.02;;;;;;;-4.48;81.35;101516.78;5100736;28;20028;-69
2021/12/22 03:05:53;;;;;;;55.88;24.83;;;;;;;-4.62;81.13;101505.56;5099764;28;20132;-69
2021/12/22 03:08:19;;;;;;;56.08;25.10;;;;;;;-4.60;80.88;101525.59;5105830;28;20031;-69
2021/12/22 03:10:44;;;;;;;49.53;22.33;;;;;;;-4.52;81.12;101536.03;5098511;28;20093;-69
2021/12/22 03:13:09;;;;;;;57.08;25.52;;;;;;;-4.61;81.13;101526.50;5106436;28;20015;-69
2021/12/22 03:15:35;;;;;;;68.65;25.33;;;;;;;-4.61;81.05;101526.50;5103764;28;20028;-69
2021/12/22 03:18:02;;;;;;;60.17;26.83;;;;;;;-4.70;80.86;101516.94;5103740;28;20100;-68
2021/12/22 03:20:27;;;;;;;56.95;25.25;;;;;;;-4.63;81.06;101538.72;5099402;28;20024;-69
2021/12/22 03:22:53;;;;;;;57.33;27.27;;;;;;;-4.68;80.23;101531.78;5101900;28;20767;-69
2021/12/22 03:25:20;;;;;;;67.60;24.55;;;;;;;-4.75;80.19;101526.56;5097080;28;20126;-69
2021/12/22 03:27:50;;;;;;;59.92;25.65;;;;;;;-4.80;80.16;101514.41;5096119;28;20077;-69
2021/12/22 03:30:22;;;;;;;51.83;23.98;;;;;;;-4.78;80.50;101537.06;5104409;28;20055;-69
2021/12/22 03:32:48;;;;;;;50.05;22.55;;;;;;;-4.79;80.40;101537.06;5098797;28;20410;-68
2021/12/22 03:35:18;;;;;;;54.28;22.27;;;;;;;-4.84;80.07;101526.63;5100927;28;20024;-69
2021/12/22 03:37:45;;;;;;;55.30;26.42;;;;;;;-4.86;80.15;101540.59;5098020;28;20043;-68
2021/12/22 03:40:11;;;;;;;55.60;23.17;;;;;;;-4.88;80.03;101543.22;5099022;28;20523;-69
2021/12/22 03:42:37;;;;;;;62.03;25.45;;;;;;;-4.91;80.21;101542.38;5102848;28;20114;-69
2021/12/22 03:45:04;;;;;;;58.58;25.02;;;;;;;-4.94;79.69;101534.53;5105973;28;20487;-69
2021/12/22 03:47:29;;;;;;;57.10;24.13;;;;;;;-4.93;80.17;101533.69;5102244;28;20542;-69
2021/12/22 03:49:55;;;;;;;63.80;25.85;;;;;;;-4.97;79.71;101537.16;5106409;28;20166;-68
2021/12/22 03:52:20;;;;;;;63.42;25.67;;;;;;;-4.96;80.13;101545.00;5101508;28;20020;-68
2021/12/22 03:54:46;;;;;;;59.05;24.23;;;;;;;-5.03;80.33;101547.69;5099051;28;20584;-69
2021/12/22 03:57:11;;;;;;;61.60;24.83;;;;;;;-5.02;80.06;101545.06;5093249;28;20537;-69
2021/12/22 03:59:37;;;;;;;60.10;25.33;;;;;;;-5.08;80.24;101545.09;5101188;28;20020;-69
2021/12/22 04:02:02;;;;;;;64.38;24.92;;;;;;;-5.01;80.36;101557.25;5102664;28;20521;-69
2021/12/22 04:04:28;;;;;;;57.83;23.58;;;;;;;-5.10;80.32;101551.19;5101957;28;20143;-69
2021/12/22 04:06:53;;;;;;;64.93;26.25;;;;;;;-5.04;80.80;101566.84;5101381;28;20039;-69
2021/12/22 04:09:26;;;;;;;59.08;24.25;;;;;;;-5.08;80.67;101558.16;5101907;28;20531;-69
2021/12/22 04:11:51;;;;;;;56.38;23.42;;;;;;;-5.09;80.44;101553.78;5100053;28;20019;-69
2021/12/22 04:14:17;;;;;;;55.58;23.05;;;;;;;-5.07;80.36;101559.91;5096481;28;20028;-69
2021/12/22 04:16:42;;;;;;;59.95;24.70;;;;;;;-5.16;81.00;101557.31;5096755;28;20028;-68
2021/12/22 04:19:08;;;;;;;63.63;25.73;;;;;;;-5.16;81.68;101556.47;5104774;28;20027;-69
2021/12/22 04:21:33;;;;;;;61.80;25.35;;;;;;;-5.09;82.17;101566.88;5102352;28;20031;-69
2021/12/22 04:24:00;;;;;;;62.42;27.17;;;;;;;-5.07;82.26;101566.84;5099623;28;20051;-69
2021/12/22 04:26:27;;;;;;;57.42;24.48;;;;;;;-5.06;81.68;101577.31;5096941;28;20020;-69
2021/12/22 04:28:53;;;;;;;60.25;24.58;;;;;;;-5.07;81.60;101574.69;5108728;28;20019;-69
2021/12/22 04:31:18;;;;;;;59.08;24.85;;;;;;;-5.09;82.07;101579.94;5103679;28;20024;-69
2021/12/22 04:33:44;;;;;;;53.63;25.15;;;;;;;-5.05;82.53;101591.28;5098619;28;20479;-70
2021/12/22 04:36:09;;;;;;;58.95;25.42;;;;;;;-5.12;82.91;101573.88;5101281;28;20134;-69
2021/12/22 04:38:35;;;;;;;63.03;26.15;;;;;;;-5.04;83.39;101586.03;5097379;28;20490;-69
2021/12/22 04:41:00;;;;;;;55.85;25.20;;;;;;;-5.05;84.05;101579.06;5098037;28;20023;-68
2021/12/22 04:43:26;;;;;;;53.33;23.55;;;;;;;-5.03;85.09;101581.69;5102642;28;20028;-68
2021/12/22 04:45:51;;;;;;;55.97;25.33;;;;;;;-5.02;85.31;101586.03;5098268;28;20035;-69
2021/12/22 04:48:17;;;;;;;57.95;25.42;;;;;;;-5.00;86.59;101592.97;5100064;28;20028;-68
2021/12/22 04:50:43;;;;;;;47.03;22.48;;;;;;;-4.89;87.34;101593.81;5102206;28;20044;-68
2021/12/22 04:53:13;;;;;;;55.22;23.50;;;;;;;-4.90;87.80;101585.97;5097368;28;20042;-69
2021/12/22 04:55:39;;;;;;;52.70;24.55;;;;;;;-4.78;89.05;101605.09;5099028;28;20081;-69
2021/12/22 04:58:05;;;;;;;48.70;23.50;;;;;;;-4.73;89.25;101607.69;5097454;28;20035;-69
2021/12/22 05:00:34;;;;;;;47.97;23.55;;;;;;;-4.71;89.10;101588.47;5096357;28;20026;-68
2021/12/22 05:02:59;;;;;;;43.33;21.92;;;;;;;-4.65;89.54;101595.41;5097457;28;20028;-69
2021/12/22 05:05:26;;;;;;;43.05;21.17;;;;;;;-4.62;90.57;101587.53;5098734;28;20038;-69
2021/12/22 05:07:52;;;;;;;42.67;21.55;;;;;;;-4.50;91.10;101595.31;5101967;28;20106;-69
2021/12/22 05:10:18;;;;;;;47.95;22.05;;;;;;;-4.42;91.59;101606.59;5102058;28;20111;-69
2021/12/22 05:12:46;;;;;;;42.83;19.33;;;;;;;-4.32;91.88;101596.94;5096535;28;20036;-68
2021/12/22 05:15:12;;;;;;;40.65;19.95;;;;;;;-4.27;92.32;101603.00;5092383;28;20073;-69
2021/12/22 05:20:11;;;;;;;45.50;21.17;;;;;;;-4.17;93.39;101591.56;5101699;28;20493;-70
2021/12/22 05:22:36;;;;;;;47.88;24.20;;;;;;;-4.07;93.60;101598.50;5097531;28;20031;-69
2021/12/22 05:25:08;;;;;;;51.65;24.08;;;;;;;-4.04;93.80;101598.44;5101780;28;20033;-69
2021/12/22 05:27:33;;;;;;;54.17;24.83;;;;;;;-4.03;93.82;101600.22;5094381;28;20093;-69
2021/12/22 05:29:59;;;;;;;55.10;25.35;;;;;;;-3.97;93.22;101601.00;5099498;28;20486;-68
2021/12/22 05:32:31;;;;;;;60.72;27.33;;;;;;;-3.91;93.06;101614.06;5102980;28;20024;-68
2021/12/22 05:34:57;;;;;;;47.15;24.42;;;;;;;-4.00;93.06;101595.78;5103287;28;20103;-69
2021/12/22 05:37:23;;;;;;;46.42;24.05;;;;;;;-3.91;92.16;101606.19;5097015;28;20028;-69
2021/12/22 05:39:48;;;;;;;51.80;24.52;;;;;;;-3.87;91.84;101613.16;5098247;28;20031;-69
2021/12/22 05:42:14;;;;;;;41.58;22.33;;;;;;;-3.84;91.84;101609.66;5098495;28;20110;-69
2021/12/22 05:44:40;;;;;;;51.88;23.00;;;;;;;-3.76;91.80;101616.56;5098514;28;20548;-70
2021/12/22 05:47:06;;;;;;;50.70;23.33;;;;;;;-3.75;90.67;101617.41;5102677;28;20441;-69
2021/12/22 05:49:31;;;;;;;47.35;21.77;;;;;;;-3.69;90.19;101619.97;5105581;28;20071;-67
2021/12/22 05:51:58;;;;;;;45.22;22.83;;;;;;;-3.68;90.38;101626.97;5099641;28;20050;-68
2021/12/22 05:54:23;;;;;;;48.58;22.15;;;;;;;-3.65;90.48;101624.34;5096660;28;20024;-69
2021/12/22 05:56:49;;;;;;;49.33;22.50;;;;;;;-3.61;90.63;101624.25;5099877;28;20020;-69
2021/12/22 05:59:14;;;;;;;49.47;22.90;;;;;;;-3.55;90.42;101639.09;5099980;28;20076;-70
2021/12/22 06:01:40;;;;;;;46.88;22.45;;;;;;;-3.58;90.64;101626.00;5098626;28;20028;-69
2021/12/22 06:04:06;;;;;;;55.20;24.98;;;;;;;-3.62;90.37;101617.28;5096847;28;20051;-69
2021/12/22 06:06:32;;;;;;;53.92;23.08;;;;;;;-3.46;90.72;101641.59;5096999;28;20032;-68
2021/12/22 06:08:57;;;;;;;51.72;23.35;;;;;;;-3.46;90.78;101633.72;5099533;28;20038;-69
2021/12/22 06:11:23;;;;;;;50.85;25.27;;;;;;;-3.41;90.79;101630.19;5106942;28;20082;-69
2021/12/22 06:13:48;;;;;;;56.33;25.55;;;;;;;-3.35;91.00;101645.00;5099430;28;20486;-69
2021/12/22 06:16:14;;;;;;;53.72;23.55;;;;;;;-3.32;90.55;101645.81;5096525;28;20046;-70
2021/12/22 06:18:44;;;;;;;51.60;24.88;;;;;;;-3.33;90.92;101643.19;5090636;28;20495;-69
2021/12/22 06:21:11;;;;;;;44.10;22.92;;;;;;;-3.43;90.57;101626.72;5103412;28;20454;-70
2021/12/22 06:23:37;;;;;;;48.97;23.70;;;;;;;-3.29;91.33;101647.56;5100829;28;20031;-70
2021/12/22 06:26:03;;;;;;;42.30;21.20;;;;;;;-3.23;91.51;101653.59;5098269;28;20037;-70
2021/12/22 06:28:28;;;;;;;49.92;24.67;;;;;;;-3.23;91.60;101650.09;5100167;28;20114;-69
2021/12/22 06:30:53;;;;;;;52.80;26.60;;;;;;;-3.19;92.58;101651.81;5093738;28;20020;-70
2021/12/22 06:33:19;;;;;;;65.25;30.30;;;;;;;-3.16;92.69;101660.50;5095777;28;20032;-69
2021/12/22 06:35:48;;;;;;;61.85;29.65;;;;;;;-3.14;91.98;101661.38;5110338;28;20028;-67
2021/12/22 06:38:15;;;;;;;59.85;28.40;;;;;;;-3.07;92.35;101670.91;5098671;28;20042;-68
2021/12/22 06:40:41;;;;;;;51.28;25.88;;;;;;;-3.13;92.16;101652.59;5111990;28;20024;-68
2021/12/22 06:43:07;;;;;;;48.55;24.45;;;;;;;-3.04;92.26;101670.88;5104006;28;20592;-68
2021/12/22 06:45:33;;;;;;;49.15;23.27;;;;;;;-3.02;92.18;101663.88;5103968;28;20119;-68
2021/12/22 06:47:58;;;;;;;41.58;21.48;;;;;;;-2.96;92.40;101662.91;5106492;28;20036;-68
2021/12/22 06:50:24;;;;;;;43.05;20.77;;;;;;;-2.94;92.86;101659.38;5105734;28;20573;-68
2021/12/22 06:52:49;;;;;;;33.53;18.50;;;;;;;-2.87;93.34;101668.91;5096869;28;20075;-68
2021/12/22 06:55:14;;;;;;;38.08;17.95;;;;;;;-2.94;92.49;101643.63;5093966;28;20024;-68
2021/12/22 06:57:40;;;;;;;41.92;18.65;;;;;;;-2.74;92.96;101673.13;5096241;28;20036;-69
2021/12/22 07:00:08;;;;;;;37.55;19.45;;;;;;;-2.69;92.97;101681.81;5091187;28;20040;-68
2021/12/22 07:02:37;;;;;;;38.42;19.13;;;;;;;-2.65;92.67;101682.63;5099177;28;20382;-67
2021/12/22 07:05:05;;;;;;;40.13;19.15;;;;;;;-2.64;92.60;101684.41;5101775;28;20466;-69
2021/12/22 07:07:30;;;;;;;31.95;17.52;;;;;;;-2.67;92.37;101674.78;5100427;28;20032;-68
2021/12/22 07:09:56;;;;;;;37.45;18.90;;;;;;;-2.57;91.85;101689.56;5105065;28;20483;-69
2021/12/22 07:12:21;;;;;;;38.92;19.25;;;;;;;-2.52;92.04;101682.47;5107132;28;20028;-69
2021/12/22 07:14:47;;;;;;;35.10;18.20;;;;;;;-2.55;91.81;101677.25;5107438;28;20535;-69
2021/12/22 07:17:13;;;;;;;35.05;18.73;;;;;;;-2.57;91.86;101671.19;5102834;28;20024;-69
2021/12/22 07:19:38;;;;;;;37.85;17.17;;;;;;;-2.37;92.56;101705.94;5105785;28;20028;-69
2021/12/22 07:22:04;;;;;;;35.60;17.10;;;;;;;-2.37;92.73;101692.78;5102951;28;20039;-69
2021/12/22 07:24:30;;;;;;;38.05;19.85;;;;;;;-2.28;92.53;101704.06;5097569;28;20039;-69
2021/12/22 07:26:55;;;;;;;41.20;19.98;;;;;;;-2.37;92.54;101677.03;5098860;28;20119;-68
2021/12/22 07:29:20;;;;;;;39.53;21.25;;;;;;;-2.20;92.29;101703.06;5100685;28;20035;-68
2021/12/22 07:31:46;;;;;;;45.08;20.70;;;;;;;-2.15;92.39;101710.88;5104299;28;20026;-69
2021/12/22 07:34:12;;;;;;;39.35;20.65;;;;;;;-2.11;92.10;101707.31;5111018;28;20075;-69
2021/12/22 07:37:03;;;;;;;43.35;20.65;;;;;;;-2.08;92.28;101708.16;5095588;28;20739;-69
2021/12/22 07:39:29;;;;;;;38.05;21.17;;;;;;;-2.04;91.97;101708.97;5100695;28;20032;-69
2021/12/22 07:41:55;;;;;;;44.75;23.15;;;;;;;-2.07;92.46;101699.34;5108483;28;20073;-69
2021/12/22 07:44:20;;;;;;;47.15;23.98;;;;;;;-1.98;92.42;101703.59;5101031;28;20038;-70
2021/12/22 07:46:46;;;;;;;51.88;24.85;;;;;;;-1.91;92.42;101715.78;5100399;28;20102;-69
2021/12/22 07:49:11;;;;;;;53.67;25.45;;;;;;;-1.94;92.13;101713.22;5102074;28;20548;-69
2021/12/22 07:51:37;;;;;;;54.47;26.30;;;;;;;-1.87;92.35;101717.47;5109871;28;20035;-69
2021/12/22 07:54:03;;;;;;;62.33;29.70;;;;;;;-1.82;92.37;101716.50;5101042;28;20075;-69
2021/12/22 07:56:28;;;;;;;62.17;27.63;;;;;;;-1.74;92.17;101724.28;5104170;28;20036;-69
2021/12/22 07:58:54;;;;;;;57.97;26.25;;;;;;;-1.68;92.21;101732.09;5108039;28;20043;-69
2021/12/22 08:01:20;;;;;;;50.63;26.13;;;;;;;-1.65;92.16;101730.25;5104958;28;20024;-70
2021/12/22 08:03:46;;;;;;;47.20;24.70;;;;;;;-1.55;91.61;101739.75;5100746;28;20115;-69
2021/12/22 08:06:13;;;;;;;46.67;22.85;;;;;;;-1.47;91.23;101734.34;5103656;28;20107;-69
2021/12/22 08:08:38;;;;;;;49.97;24.52;;;;;;;-1.41;91.18;101735.13;5103141;28;20432;-69
2021/12/22 08:11:04;;;;;;;49.03;25.55;;;;;;;-1.32;90.71;101736.75;5102734;28;20098;-70
2021/12/22 08:13:30;;;;;;;49.75;24.60;;;;;;;-1.26;90.33;101739.28;5101036;28;20034;-69
2021/12/22 08:15:56;;;;;;;48.85;25.38;;;;;;;-1.14;90.21;101752.19;5101451;28;20032;-69
2021/12/22 08:18:21;;;;;;;44.22;23.95;;;;;;;-1.10;89.80;101738.13;5101220;28;20463;-69
2021/12/22 08:20:47;;;;;;;51.80;26.92;;;;;;;-1.03;89.53;101745.84;5093869;28;20129;-69
2021/12/22 08:23:12;;;;;;;51.83;26.70;;;;;;;-0.95;89.50;101745.72;5105759;28;20076;-69
2021/12/22 08:25:39;;;;;;;46.75;25.33;;;;;;;-0.86;89.02;101746.44;5103246;28;20016;-70
2021/12/22 08:28:05;;;;;;;51.38;26.75;;;;;;;-0.77;88.76;101753.28;5099923;28;20043;-69
2021/12/22 08:30:31;;;;;;;49.28;25.98;;;;;;;-0.70;88.56;101757.53;5103133;28;20077;-69
2021/12/22 08:32:59;;;;;;;44.92;25.17;;;;;;;-0.64;87.64;101752.16;5101125;28;20024;-69
2021/12/22 08:35:26;;;;;;;46.15;24.42;;;;;;;-0.61;87.48;101750.31;5100894;28;20028;-69
2021/12/22 08:40:37;;;;;;;49.65;24.83;;;;;;;-0.43;87.05;101757.00;5097801;28;20038;-70
2021/12/22 08:43:02;;;;;;;49.25;24.38;;;;;;;-0.36;86.61;101756.84;5100959;28;20050;-68
2021/12/22 08:45:28;;;;;;;48.10;26.73;;;;;;;-0.26;85.89;101770.69;5099074;28;20040;-69
2021/12/22 08:47:53;;;;;;;47.55;24.83;;;;;;;-0.28;85.29;101759.31;5095202;28;20031;-69
2021/12/22 08:50:19;;;;;;;48.58;24.60;;;;;;;-0.20;84.70;101765.28;5101554;28;20052;-69
2021/12/22 08:52:46;;;;;;;48.90;23.90;;;;;;;-0.14;84.37;101759.88;5107271;28;20024;-68
2021/12/22 08:55:13;;;;;;;52.50;24.50;;;;;;;-0.01;84.07;101771.91;5102650;28;20039;-67
2021/12/22 08:57:38;;;;;;;49.17;24.50;;;;;;;0.03;83.61;101773.56;5106427;28;20422;-70
2021/12/22 09:00:10;;;;;;;49.78;26.45;;;;;;;0.07;82.71;101779.66;5097087;28;20024;-69
2021/12/22 09:02:37;;;;;;;46.53;26.15;;;;;;;0.13;82.46;101780.41;5100143;28;20032;-69
2021/12/22 09:05:04;;;;;;;48.90;25.83;;;;;;;0.15;81.73;101781.22;5102930;28;20039;-68
2021/12/22 09:07:29;;;;;;;47.33;23.90;;;;;;;0.18;80.90;101786.44;5092505;28;20039;-68
2021/12/22 09:09:55;;;;;;;46.03;23.00;;;;;;;0.27;80.00;101791.50;5102690;28;20305;-69
2021/12/22 09:12:20;;;;;;;44.30;23.50;;;;;;;0.29;79.01;101780.94;5097265;28;20107;-69
2021/12/22 09:14:46;;;;;;;36.72;21.15;;;;;;;0.39;78.70;101788.59;5094557;28;20748;-69
2021/12/22 09:17:11;;;;;;;40.05;20.70;;;;;;;0.40;77.73;101778.91;5095208;28;20035;-68
2021/12/22 09:19:37;;;;;;;33.30;19.70;;;;;;;0.54;76.86;101787.38;5092365;28;20020;-69
2021/12/22 09:22:02;;;;;;;38.45;20.42;;;;;;;0.55;76.61;101771.47;5097253;28;20019;-70
2021/12/22 09:24:28;;;;;;;37.95;20.88;;;;;;;0.60;76.48;101782.81;5101649;28;20066;-69
2021/12/22 09:26:53;;;;;;;37.80;20.33;;;;;;;0.60;76.03;101777.53;5097274;28;20442;-67
2021/12/22 09:29:19;;;;;;;35.55;19.15;;;;;;;0.70;75.74;101786.09;5101031;28;20027;-69
2021/12/22 09:31:44;;;;;;;32.70;17.75;;;;;;;0.72;74.99;101784.28;5102586;28;20092;-69
2021/12/22 09:34:10;;;;;;;34.97;17.73;;;;;;;0.76;74.86;101781.53;5101081;28;20115;-68
2021/12/22 09:36:36;;;;;;;31.02;16.15;;;;;;;0.81;74.44;101769.06;5100749;28;20706;-68
2021/12/22 09:39:03;;;;;;;28.25;15.68;;;;;;;0.91;72.63;101778.53;5104539;28;20799;-68
2021/12/22 09:41:29;;;;;;;28.08;15.40;;;;;;;0.92;72.11;101782.91;5096480;28;20032;-68
2021/12/22 09:43:56;;;;;;;30.95;15.85;;;;;;;0.97;71.78;101783.63;5103633;28;20169;-69
2021/12/22 09:46:23;;;;;;;33.90;19.23;;;;;;;0.96;71.41;101765.19;5100870;28;20415;-70
2021/12/22 09:48:53;;;;;;;27.08;15.88;;;;;;;0.91;71.00;101764.44;5096711;28;20034;-69
2021/12/22 09:53:50;;;;;;;24.42;14.10;;;;;;;0.89;71.37;101764.47;5093228;28;20060;-69
2021/12/22 09:56:22;;;;;;;26.13;14.52;;;;;;;0.94;70.62;101767.00;5091537;28;20047;-69
2021/12/22 09:58:48;;;;;;;25.42;15.02;;;;;;;0.88;71.08;101764.53;5098754;28;20034;-69
2021/12/22 10:01:22;;;;;;;27.80;14.57;;;;;;;0.94;70.80;101772.28;5097976;28;20383;-69
2021/12/22 10:03:48;;;;;;;28.52;14.55;;;;;;;0.96;70.73;101770.47;5096331;28;20106;-69
2021/12/22 10:06:14;;;;;;;25.60;14.50;;;;;;;0.93;70.83;101770.56;5098289;28;20053;-70
2021/12/22 10:08:51;;;;;;;26.90;13.77;;;;;;;0.90;70.47;101760.06;5103465;28;20026;-69
2021/12/22 10:11:16;;;;;;;25.55;14.20;;;;;;;0.99;69.75;101770.38;5102653;28;20023;-69
2021/12/22 10:13:44;;;;;;;24.63;15.18;;;;;;;0.91;69.72;101754.75;5098184;28;20139;-69
2021/12/22 10:16:18;;;;;;;26.20;14.55;;;;;;;1.06;69.62;101769.34;5101888;28;20111;-69
2021/12/22 10:18:44;;;;;;;22.08;13.02;;;;;;;1.05;69.51;101759.66;5098533;28;20035;-69
2021/12/22 10:21:23;;;;;;;20.02;11.80;;;;;;;1.18;68.51;101774.28;5095176;28;20026;-70
2021/12/22 10:23:51;;;;;;;27.88;13.65;;;;;;;1.24;67.13;101759.16;5102728;28;20581;-69
2021/12/22 10:26:20;;;;;;;25.30;13.07;;;;;;;1.28;67.19;101746.72;5107885;28;20023;-70
2021/12/22 10:29:00;;;;;;;19.60;11.80;;;;;;;1.41;65.64;101759.56;5103125;28;20055;-69
2021/12/22 10:31:44;;;;;;;19.27;10.80;;;;;;;1.47;64.58;101755.88;5104184;28;20028;-69
2021/12/22 10:34:14;;;;;;;22.17;11.75;;;;;;;1.53;63.26;101753.06;5111726;28;20073;-67
2021/12/22 10:36:49;;;;;;;21.77;12.55;;;;;;;1.58;62.93;101745.88;5108798;28;20031;-67
2021/12/22 10:39:25;;;;;;;24.33;12.88;;;;;;;1.66;62.70;101743.88;5102851;28;20050;-68
2021/12/22 10:41:51;;;;;;;21.55;12.73;;;;;;;1.70;62.45;101734.94;5099241;28;20490;-67
2021/12/22 10:44:19;;;;;;;19.63;12.38;;;;;;;1.78;62.09;101744.38;5101010;28;20475;-66
2021/12/22 10:46:46;;;;;;;25.98;11.80;;;;;;;1.82;60.94;101740.75;5099228;28;20038;-68
2021/12/22 10:49:14;;;;;;;20.40;10.95;;;;;;;1.87;60.82;101744.09;5104445;28;20055;-68
2021/12/22 10:51:42;;;;;;;21.27;10.77;;;;;;;1.89;60.14;101731.72;5092425;28;20060;-68
2021/12/22 10:54:10;;;;;;;21.25;10.15;;;;;;;1.93;59.19;101738.63;5110332;28;20027;-67
2021/12/22 10:56:40;;;;;;;18.17;10.27;;;;;;;1.98;58.61;101738.50;5093946;28;20024;-67
2021/12/22 10:59:17;;;;;;;15.43;8.73;;;;;;;2.02;58.01;101740.13;5107352;28;20102;-67
2021/12/22 11:01:56;;;;;;;18.40;9.73;;;;;;;2.04;57.92;101743.59;5095110;28;20073;-67
2021/12/22 11:04:27;;;;;;;20.70;9.70;;;;;;;1.93;57.37;101721.88;5099882;28;20103;-67
2021/12/22 11:06:55;;;;;;;19.63;10.00;;;;;;;2.01;56.80;101725.19;5099595;28;20036;-66
2021/12/22 11:09:22;;;;;;;17.98;9.90;;;;;;;2.08;56.53;101737.31;5091573;28;20024;-68
2021/12/22 11:11:57;;;;;;;21.13;10.93;;;;;;;2.09;56.28;101736.38;5099453;28;20038;-67
2021/12/22 11:14:36;;;;;;;22.50;12.35;;;;;;;2.06;55.92;101717.94;5099377;28;20058;-68
2021/12/22 11:17:13;;;;;;;20.58;11.50;;;;;;;2.10;55.79;101732.84;5097086;28;20055;-67
2021/12/22 11:19:57;;;;;;;19.33;10.68;;;;;;;2.11;55.60;101723.97;5101076;28;20038;-68
2021/12/22 11:22:46;;;;;;;;;;;;;;;2.14;55.31;101730.06;5098466;28;20042;-67
2021/12/22 11:25:12;;;;;;;19.70;11.05;;;;;;;2.12;55.63;101717.78;5096471;28;19919;-68
2021/12/22 11:27:38;;;;;;;20.80;11.27;;;;;;;2.15;55.51;101715.91;5106070;28;20028;-67
2021/12/22 11:30:04;;;;;;;19.20;10.32;;;;;;;2.16;56.30;101722.91;5105407;28;20028;-66
2021/12/22 11:32:31;;;;;;;20.60;9.10;;;;;;;2.15;55.33;101717.69;5108595;28;20116;-68
2021/12/22 11:35:02;;;;;;;16.80;7.43;;;;;;;2.10;53.99;101711.69;5101148;28;20040;-67